Time;durP1;ratioP1;P1;durP2;ratioP2;P2;SDS_P1;SDS_P2;PMS_P1;PMS_P2;Temp;Humidity;BMP_temperature;BMP_pressure;BME280_temperature;BME280_humidity;BME280_pressure;Samples;Min_cycle;Max_cycle;Signal;HPM_P1;HPM_P2
2021/06/03 00:00:15;;;;;;;14.30;7.73;;;;;;;15.75;49.25;95528.88;5065421;28;20422;-70
2021/06/03 00:02:47;;;;;;;16.47;7.60;;;;;;;15.89;49.50;95529.09;5059308;28;20477;-69
2021/06/03 00:05:17;;;;;;;16.03;7.60;;;;;;;15.72;49.47;95524.16;5058936;28;20630;-64
2021/06/03 00:07:44;;;;;;;14.10;8.77;;;;;;;15.62;49.58;95526.81;5065513;28;20442;-65
2021/06/03 00:10:12;;;;;;;15.83;8.23;;;;;;;15.46;50.12;95529.78;5053500;28;20900;-71
2021/06/03 00:12:40;;;;;;;11.00;7.83;;;;;;;15.27;50.39;95531.44;5064238;28;20448;-65
2021/06/03 00:15:10;;;;;;;13.23;8.33;;;;;;;15.23;50.57;95521.41;5069006;28;20451;-75
2021/06/03 00:17:37;;;;;;;11.60;7.40;;;;;;;15.46;49.50;95530.59;5060482;28;20465;-67
2021/06/03 00:20:09;;;;;;;11.97;8.03;;;;;;;15.50;50.19;95530.84;5057891;28;20447;-67
2021/06/03 00:22:36;;;;;;;13.70;7.97;;;;;;;15.59;49.40;95529.22;5072808;28;20513;-66
2021/06/03 00:25:04;;;;;;;12.50;7.50;;;;;;;15.56;49.74;95535.06;5071628;28;21007;-69
2021/06/03 00:27:31;;;;;;;12.87;7.70;;;;;;;15.36;50.04;95520.06;5064980;28;20897;-71
2021/06/03 00:29:58;;;;;;;10.30;7.47;;;;;;;15.37;50.67;95526.09;5051714;28;20475;-67
2021/06/03 00:32:25;;;;;;;11.77;6.77;;;;;;;15.35;50.23;95534.28;5057688;28;20442;-68
2021/06/03 00:34:52;;;;;;;15.47;7.50;;;;;;;15.44;50.44;95526.66;5060026;28;20447;-67
2021/06/03 00:37:19;;;;;;;10.63;7.43;;;;;;;15.45;50.78;95529.03;5059552;28;20450;-69
2021/06/03 00:39:46;;;;;;;13.00;7.37;;;;;;;15.39;50.20;95523.97;5071814;28;20441;-62
2021/06/03 00:42:13;;;;;;;16.00;7.83;;;;;;;15.30;50.50;95536.16;5052025;28;20482;-66
2021/06/03 00:44:40;;;;;;;14.63;7.63;;;;;;;15.30;51.34;95536.97;5051867;28;20431;-67
2021/06/03 00:47:07;;;;;;;11.50;7.67;;;;;;;15.15;51.01;95534.34;5055742;28;20438;-67
2021/06/03 00:49:35;;;;;;;13.60;8.37;;;;;;;15.07;51.08;95533.03;5072016;28;20525;-63
2021/06/03 00:52:02;;;;;;;14.80;7.57;;;;;;;15.12;51.15;95535.69;5070877;28;20871;-66
2021/06/03 00:54:29;;;;;;;13.87;7.70;;;;;;;15.08;51.31;95539.13;5071485;28;20438;-62
2021/06/03 00:56:57;;;;;;;12.73;7.70;;;;;;;14.84;51.97;95536.25;5070743;28;20450;-71
2021/06/03 00:59:24;;;;;;;15.47;7.60;;;;;;;14.76;51.64;95534.16;5070113;28;21017;-65
2021/06/03 01:01:51;;;;;;;11.07;7.20;;;;;;;14.81;51.26;95531.53;5058478;28;21051;-66
2021/06/03 01:04:21;;;;;;;9.77;7.50;;;;;;;14.82;51.73;95524.38;5069575;28;20458;-67
2021/06/03 01:06:48;;;;;;;13.07;8.13;;;;;;;14.88;51.63;95539.97;5067438;28;20551;-66
2021/06/03 01:09:27;;;;;;;10.03;6.87;;;;;;;15.05;51.66;95540.44;5050268;28;20448;-69
2021/06/03 01:12:10;;;;;;;13.60;7.17;;;;;;;14.85;52.18;95544.97;5068395;28;20901;-64
2021/06/03 01:14:43;;;;;;;9.53;6.87;;;;;;;14.99;51.68;95546.81;5064975;28;20442;-71
2021/06/03 01:17:11;;;;;;;15.87;8.10;;;;;;;14.80;51.37;95543.13;5071973;28;20438;-66
2021/06/03 01:19:42;;;;;;;14.43;8.47;;;;;;;14.63;51.48;95541.81;5058711;28;20473;-66
2021/06/03 01:22:33;;;;;;;9.90;7.63;;;;;;;14.46;51.07;95538.66;5065820;28;20479;-68
2021/06/03 01:25:02;;;;;;;11.77;8.20;;;;;;;14.41;51.26;95542.09;5064956;28;20582;-71
2021/06/03 01:27:33;;;;;;;10.37;7.40;;;;;;;14.38;51.42;95545.22;5057746;28;20438;-63
2021/06/03 01:30:17;;;;;;;16.90;7.40;;;;;;;14.70;50.72;95535.22;5054868;28;20470;-67
2021/06/03 01:32:57;;;;;;;9.93;7.87;;;;;;;14.67;50.58;95538.38;5059703;28;20430;-66
2021/06/03 01:35:32;;;;;;;9.07;6.77;;;;;;;14.56;50.50;95544.72;5055632;28;20442;-69
2021/06/03 01:38:02;;;;;;;10.97;6.50;;;;;;;14.50;50.33;95537.88;5066508;28;20449;-67
2021/06/03 01:40:33;;;;;;;12.43;7.27;;;;;;;14.51;50.77;95543.91;5050979;28;20443;-70
2021/06/03 01:43:01;;;;;;;12.90;7.53;;;;;;;14.43;50.99;95537.34;5062786;28;20535;-65
2021/06/03 01:45:30;;;;;;;17.07;7.33;;;;;;;14.43;51.25;95537.34;5069428;28;20435;-65
2021/06/03 01:47:58;;;;;;;8.27;6.53;;;;;;;14.51;51.25;95544.72;5058675;28;20445;-67
2021/06/03 01:50:26;;;;;;;10.93;6.70;;;;;;;14.56;50.84;95549.97;5067572;28;20457;-64
2021/06/03 01:52:57;;;;;;;14.27;6.73;;;;;;;14.60;51.63;95547.59;5069691;28;20434;-65
2021/06/03 01:55:25;;;;;;;11.10;6.83;;;;;;;14.56;51.43;95549.22;5068791;28;20483;-68
2021/06/03 01:57:52;;;;;;;10.77;7.33;;;;;;;14.48;51.69;95555.81;5062079;28;20478;-65
2021/06/03 02:00:27;;;;;;;9.97;6.67;;;;;;;14.39;51.48;95546.84;5064796;28;20453;-69
2021/06/03 02:02:56;;;;;;;9.40;7.23;;;;;;;14.38;51.64;95547.88;5062564;28;20835;-68
2021/06/03 02:05:27;;;;;;;9.63;7.10;;;;;;;14.54;51.63;95553.97;5062084;28;20887;-68
2021/06/03 02:07:57;;;;;;;9.03;6.17;;;;;;;14.34;51.50;95560.03;5068480;28;20533;-67
2021/06/03 02:10:26;;;;;;;9.93;6.43;;;;;;;14.46;50.96;95552.63;5065832;28;20455;-64
2021/06/03 02:13:08;;;;;;;10.80;6.60;;;;;;;14.44;50.96;95565.28;5063415;28;20452;-66
2021/06/03 02:15:42;;;;;;;8.30;6.33;;;;;;;14.50;51.29;95564.25;5062956;28;20880;-66
2021/06/03 02:18:12;;;;;;;9.37;6.23;;;;;;;14.41;51.07;95560.56;5048063;28;20497;-68
2021/06/03 02:20:42;;;;;;;15.37;6.37;;;;;;;14.30;51.15;95564.22;5049386;28;20450;-68
2021/06/03 02:23:16;;;;;;;11.03;6.20;;;;;;;14.29;50.58;95557.34;5050157;28;20482;-71
2021/06/03 02:25:45;;;;;;;12.70;5.77;;;;;;;14.21;50.78;95560.50;5050150;28;20442;-69
2021/06/03 02:28:14;;;;;;;7.40;5.70;;;;;;;14.20;50.80;95557.06;5050314;28;20529;-67
2021/06/03 02:30:43;;;;;;;6.43;5.30;;;;;;;14.06;50.92;95558.63;5079336;28;20483;-65
2021/06/03 02:33:12;;;;;;;10.33;5.60;;;;;;;13.75;51.71;95571.97;5060704;28;21222;-67
2021/06/03 02:35:39;;;;;;;11.03;6.03;;;;;;;13.74;51.63;95565.88;5065474;28;20474;-73
2021/06/03 02:38:06;;;;;;;12.67;6.33;;;;;;;13.67;52.09;95564.53;5063035;28;20549;-66
2021/06/03 02:40:35;;;;;;;9.03;5.97;;;;;;;13.46;52.15;95578.69;5056690;28;20530;-65
2021/06/03 02:43:06;;;;;;;9.23;6.23;;;;;;;13.33;52.17;95553.63;5059779;28;20497;-67
2021/06/03 02:45:34;;;;;;;6.80;5.87;;;;;;;13.38;52.33;95579.16;5070182;28;20520;-69
2021/06/03 02:48:05;;;;;;;14.47;6.60;;;;;;;13.38;52.24;95576.53;5063760;28;20468;-67
2021/06/03 02:50:37;;;;;;;6.90;5.33;;;;;;;13.34;52.45;95580.75;5069625;28;20440;-64
2021/06/03 02:53:05;;;;;;;7.97;6.07;;;;;;;13.30;52.04;95575.19;5068092;28;20491;-65
2021/06/03 02:55:35;;;;;;;10.77;6.30;;;;;;;13.31;52.06;95576.75;5056557;28;20467;-70
2021/06/03 02:58:07;;;;;;;11.20;6.20;;;;;;;13.14;52.84;95581.41;5057819;28;20438;-68
2021/06/03 03:00:40;;;;;;;11.33;6.57;;;;;;;13.13;52.60;95578.00;5068376;28;20960;-66
2021/06/03 03:03:08;;;;;;;12.17;6.80;;;;;;;13.07;52.65;95580.84;5068047;28;20507;-65
2021/06/03 03:05:39;;;;;;;13.90;7.20;;;;;;;13.22;52.44;95583.56;5061318;28;20468;-66
2021/06/03 03:08:09;;;;;;;13.80;6.90;;;;;;;13.23;52.76;95583.31;5062054;28;20438;-68
2021/06/03 03:10:42;;;;;;;14.07;7.57;;;;;;;13.11;53.00;95564.28;5056684;28;20834;-65
2021/06/03 03:13:13;;;;;;;9.63;6.60;;;;;;;13.00;53.35;95594.19;5066526;28;20449;-72
2021/06/03 03:15:42;;;;;;;10.53;6.43;;;;;;;13.00;53.10;95599.44;5057860;28;20529;-68
2021/06/03 03:18:10;;;;;;;9.80;6.83;;;;;;;13.11;53.17;95603.75;5067685;28;20441;-65
2021/06/03 03:20:40;;;;;;;12.97;6.57;;;;;;;13.10;52.85;95604.78;5055220;28;20466;-64
2021/06/03 03:23:09;;;;;;;11.07;6.53;;;;;;;12.95;52.88;95599.41;5055818;28;21050;-64
2021/06/03 03:25:38;;;;;;;12.13;7.43;;;;;;;12.84;53.49;95596.97;5067143;28;20442;-66
2021/06/03 03:28:07;;;;;;;10.00;6.57;;;;;;;12.95;53.57;95596.78;5049627;28;20504;-65
2021/06/03 03:30:40;;;;;;;14.30;8.23;;;;;;;13.11;52.95;95582.72;5066165;28;20470;-67
2021/06/03 03:33:12;;;;;;;13.37;8.00;;;;;;;13.48;52.20;95597.66;5067884;28;20457;-63
2021/06/03 03:35:41;;;;;;;11.03;7.20;;;;;;;13.53;52.50;95600.31;5067861;28;20441;-63
2021/06/03 03:38:09;;;;;;;10.23;7.00;;;;;;;13.43;52.24;95600.25;5068103;28;20434;-73
2021/06/03 03:40:36;;;;;;;13.93;7.47;;;;;;;13.36;52.41;95586.53;5054676;28;20430;-67
2021/06/03 03:43:04;;;;;;;12.43;7.17;;;;;;;13.37;52.66;95606.53;5069575;28;20869;-67
2021/06/03 03:45:32;;;;;;;10.77;7.07;;;;;;;13.26;53.01;95620.69;5069649;28;20478;-67
2021/06/03 03:48:02;;;;;;;10.20;6.97;;;;;;;13.23;53.44;95615.94;5061870;28;20503;-63
2021/06/03 03:50:32;;;;;;;14.43;8.80;;;;;;;13.06;53.87;95614.22;5067584;28;20438;-69
2021/06/03 03:53:02;;;;;;;12.33;8.50;;;;;;;13.10;53.73;95596.13;5069718;28;20982;-68
2021/06/03 03:55:29;;;;;;;10.07;7.87;;;;;;;13.05;53.68;95615.28;5071181;28;20445;-67
2021/06/03 03:57:58;;;;;;;10.67;7.57;;;;;;;13.37;53.22;95601.28;5070319;28;20814;-72
2021/06/03 04:00:28;;;;;;;13.07;7.73;;;;;;;13.45;53.31;95616.59;5069931;28;20446;-66
2021/06/03 04:03:03;;;;;;;11.60;7.63;;;;;;;13.54;53.56;95612.44;5069471;28;20574;-67
2021/06/03 04:05:32;;;;;;;14.30;8.00;;;;;;;13.45;53.90;95613.97;5066114;28;20438;-70
2021/06/03 04:08:06;;;;;;;21.20;8.40;;;;;;;13.60;53.48;95617.47;5068934;28;20468;-69
2021/06/03 04:10:35;;;;;;;11.70;7.70;;;;;;;13.66;53.52;95628.81;5066325;28;20966;-65
2021/06/03 04:13:02;;;;;;;14.80;7.83;;;;;;;13.49;53.82;95621.09;5064964;28;20796;-68
2021/06/03 04:15:35;;;;;;;18.43;8.20;;;;;;;13.67;53.58;95617.22;5062005;28;20477;-69
2021/06/03 04:18:04;;;;;;;15.70;7.83;;;;;;;13.83;53.66;95618.88;5073415;28;20437;-66
2021/06/03 04:20:33;;;;;;;14.43;7.90;;;;;;;14.09;52.88;95625.81;5069037;28;20453;-70
2021/06/03 04:23:06;;;;;;;18.00;9.07;;;;;;;14.15;53.02;95622.16;5071197;28;20520;-69
2021/06/03 04:25:35;;;;;;;27.53;8.40;;;;;;;14.31;52.15;95623.78;5053940;28;20946;-66
2021/06/03 04:28:05;;;;;;;12.13;7.63;;;;;;;14.27;52.63;95622.72;5052852;28;20443;-68
2021/06/03 04:30:34;;;;;;;14.13;8.10;;;;;;;14.31;52.24;95630.91;5058932;28;20501;-66
2021/06/03 04:33:00;;;;;;;19.17;7.97;;;;;;;14.27;52.27;95638.53;5062099;28;20442;-69
2021/06/03 04:35:28;;;;;;;14.10;8.10;;;;;;;14.13;52.91;95626.88;5053657;28;20459;-68
2021/06/03 04:37:55;;;;;;;95.47;69.73;;;;;;;14.45;52.13;95624.09;5064762;28;20449;-69
2021/06/03 04:40:24;;;;;;;171.47;141.53;;;;;;;14.41;52.30;95628.31;5058065;28;21012;-68
2021/06/03 04:42:52;;;;;;;45.37;32.80;;;;;;;14.70;51.51;95622.28;5071798;28;20470;-70
2021/06/03 04:45:21;;;;;;;15.50;9.47;;;;;;;14.72;51.01;95630.72;5072265;28;20912;-68
2021/06/03 04:47:48;;;;;;;19.03;8.83;;;;;;;14.94;51.44;95636.50;5061179;28;20454;-69
2021/06/03 04:50:18;;;;;;;12.17;8.83;;;;;;;14.94;50.40;95639.16;5053938;28;20442;-69
2021/06/03 04:52:45;;;;;;;19.53;9.27;;;;;;;15.04;49.75;95628.63;5072187;28;20456;-66
2021/06/03 04:55:20;;;;;;;20.37;9.57;;;;;;;15.04;50.33;95633.88;5069417;28;20504;-69
2021/06/03 04:57:48;;;;;;;16.00;11.30;;;;;;;14.93;50.21;95603.28;5062651;28;21049;-70
2021/06/03 05:00:20;;;;;;;22.53;11.23;;;;;;;15.13;49.95;95627.03;5064223;28;20526;-70
2021/06/03 05:02:47;;;;;;;17.47;11.40;;;;;;;15.03;50.38;95637.59;5049913;28;20474;-71
2021/06/03 05:05:15;;;;;;;209.43;150.10;;;;;;;15.25;49.99;95635.44;5055418;28;20434;-72
2021/06/03 05:07:44;;;;;;;35.17;22.73;;;;;;;15.27;49.64;95622.78;5070155;28;20507;-74
2021/06/03 05:10:11;;;;;;;26.47;17.17;;;;;;;15.18;50.79;95631.53;5065450;28;20475;-69
2021/06/03 05:12:38;;;;;;;21.83;10.83;;;;;;;15.02;52.93;95625.44;5062797;28;20488;-67
2021/06/03 05:15:07;;;;;;;22.50;10.83;;;;;;;15.46;49.87;95632.81;5070075;28;20426;-67
2021/06/03 05:17:35;;;;;;;15.07;10.50;;;;;;;15.57;50.22;95631.72;5061929;28;20450;-70
2021/06/03 05:20:08;;;;;;;16.07;9.50;;;;;;;15.52;49.64;95607.97;5062566;28;20478;-67
2021/06/03 05:22:36;;;;;;;18.33;10.20;;;;;;;15.81;50.18;95622.13;5068121;28;20987;-67
2021/06/03 05:25:05;;;;;;;15.07;10.47;;;;;;;15.58;51.33;95622.75;5068193;28;20445;-71
2021/06/03 05:27:32;;;;;;;15.63;9.70;;;;;;;15.48;51.50;95634.13;5062884;28;20445;-67
2021/06/03 05:29:59;;;;;;;15.30;9.13;;;;;;;15.38;51.74;95633.34;5069320;28;20466;-71
2021/06/03 05:32:26;;;;;;;16.00;9.17;;;;;;;15.77;51.09;95634.31;5070723;28;20468;-69
2021/06/03 05:34:53;;;;;;;14.33;9.50;;;;;;;15.65;51.89;95644.41;5065361;28;20434;-70
2021/06/03 05:37:20;;;;;;;16.13;9.67;;;;;;;15.48;52.67;95649.19;5062564;28;20446;-70
2021/06/03 05:39:47;;;;;;;19.63;10.10;;;;;;;15.53;52.88;95631.47;5070795;28;20951;-67
2021/06/03 05:42:14;;;;;;;17.53;9.87;;;;;;;15.62;53.68;95644.94;5064816;28;20443;-69
2021/06/03 05:44:41;;;;;;;22.30;9.77;;;;;;;15.74;52.50;95645.41;5063037;28;20447;-72
2021/06/03 05:47:08;;;;;;;19.33;10.30;;;;;;;15.78;52.79;95638.53;5070996;28;20442;-70
2021/06/03 05:49:35;;;;;;;13.23;8.67;;;;;;;15.99;52.92;95646.13;5070915;28;20568;-70
2021/06/03 05:52:03;;;;;;;14.50;8.70;;;;;;;15.84;54.47;95648.03;5070632;28;20507;-67
2021/06/03 05:54:32;;;;;;;14.10;8.70;;;;;;;16.40;51.99;95636.16;5070253;28;20434;-70
2021/06/03 05:57:00;;;;;;;17.03;8.00;;;;;;;16.06;52.19;95637.91;5071058;28;20438;-67
2021/06/03 05:59:27;;;;;;;19.07;8.63;;;;;;;16.60;51.99;95640.56;5070382;28;20430;-67
2021/06/03 06:02:00;;;;;;;21.43;8.97;;;;;;;16.46;50.68;95629.75;5070567;28;20446;-70
2021/06/03 06:06:57;;;;;;;14.40;7.17;;;;;;;16.52;48.23;95627.91;5064782;28;20439;-69
2021/06/03 06:09:24;;;;;;;8.77;4.20;;;;;;;16.82;43.69;95633.75;5048802;28;20489;-68
2021/06/03 06:11:51;;;;;;;9.80;4.47;;;;;;;17.28;43.32;95636.06;5068661;28;20453;-67
2021/06/03 06:14:18;;;;;;;7.10;3.90;;;;;;;17.37;41.63;95639.69;5059613;28;20447;-71
2021/06/03 06:16:45;;;;;;;11.43;3.90;;;;;;;17.58;41.68;95641.09;5064773;28;20492;-69
2021/06/03 06:19:12;;;;;;;10.07;3.67;;;;;;;17.57;40.88;95628.94;5050122;28;20512;-71
2021/06/03 06:21:39;;;;;;;6.53;3.40;;;;;;;17.27;40.85;95623.88;5051646;28;20447;-67
2021/06/03 06:24:07;;;;;;;5.60;3.67;;;;;;;17.51;40.18;95630.84;5070084;28;20516;-70
2021/06/03 06:26:35;;;;;;;7.90;3.97;;;;;;;17.88;40.10;95620.34;5069229;28;20445;-67
2021/06/03 06:29:02;;;;;;;8.40;3.70;;;;;;;17.96;40.02;95626.88;5069628;28;20446;-71
2021/06/03 06:31:29;;;;;;;6.03;4.00;;;;;;;17.72;40.00;95642.00;5058160;28;20471;-69
2021/06/03 06:33:56;;;;;;;4.37;3.27;;;;;;;18.04;40.93;95631.56;5068113;28;20478;-67
2021/06/03 06:36:24;;;;;;;5.93;3.60;;;;;;;18.24;39.83;95639.28;5070547;28;20442;-69
2021/06/03 06:38:51;;;;;;;6.33;3.47;;;;;;;17.92;39.31;95631.97;5064221;28;21004;-69
2021/06/03 06:41:18;;;;;;;5.10;3.27;;;;;;;17.87;39.12;95628.56;5062594;28;20978;-71
2021/06/03 06:43:45;;;;;;;6.33;3.43;;;;;;;18.30;37.73;95638.16;5069095;28;20485;-69
2021/06/03 06:46:12;;;;;;;6.90;3.30;;;;;;;18.40;37.85;95639.84;5070273;28;20524;-71
2021/06/03 06:48:39;;;;;;;8.33;3.57;;;;;;;18.76;38.23;95631.13;5052789;28;21021;-70
2021/06/03 06:51:08;;;;;;;10.27;3.70;;;;;;;18.49;37.77;95631.00;5059003;28;20437;-65
2021/06/03 06:53:35;;;;;;;8.63;3.77;;;;;;;18.46;37.30;95636.88;5068612;28;20519;-68
2021/06/03 06:56:02;;;;;;;5.50;3.70;;;;;;;18.45;37.30;95635.28;5057465;28;20446;-71
2021/06/03 06:58:30;;;;;;;8.87;3.70;;;;;;;18.59;37.07;95630.88;5055847;28;20508;-69
2021/06/03 07:00:57;;;;;;;4.80;3.30;;;;;;;18.48;36.56;95629.44;5069615;28;20442;-70
2021/06/03 07:03:24;;;;;;;3.73;3.10;;;;;;;18.71;36.65;95635.72;5069855;28;20582;-71
2021/06/03 07:05:51;;;;;;;5.17;3.30;;;;;;;18.82;36.13;95635.31;5069569;28;20435;-69
2021/06/03 07:08:18;;;;;;;6.27;3.40;;;;;;;18.85;35.93;95631.28;5054883;28;20446;-70
2021/06/03 07:10:45;;;;;;;6.63;3.20;;;;;;;18.48;35.44;95632.09;5069878;28;20430;-67
2021/06/03 07:13:12;;;;;;;11.43;3.37;;;;;;;18.75;37.19;95623.47;5053403;28;20482;-69
2021/06/03 07:15:39;;;;;;;5.30;3.50;;;;;;;18.69;35.11;95629.91;5049888;28;20909;-70
2021/06/03 07:18:06;;;;;;;11.70;4.50;;;;;;;18.72;36.68;95619.50;5049794;28;20443;-68
2021/06/03 07:20:34;;;;;;;7.20;3.27;;;;;;;18.99;35.32;95629.47;5050937;28;20439;-71
2021/06/03 07:23:05;;;;;;;7.90;3.93;;;;;;;18.92;35.12;95635.13;5049579;28;20475;-67
2021/06/03 07:25:35;;;;;;;7.93;3.63;;;;;;;18.74;34.82;95643.13;5049886;28;20435;-68
2021/06/03 07:28:04;;;;;;;8.53;3.57;;;;;;;18.69;35.58;95630.72;5052175;28;20558;-71
2021/06/03 07:30:31;;;;;;;9.37;3.70;;;;;;;18.57;36.05;95637.53;5067681;28;20471;-71
2021/06/03 07:32:58;;;;;;;5.40;3.47;;;;;;;18.58;35.71;95639.91;5063928;28;20445;-69
2021/06/03 07:35:31;;;;;;;5.97;3.43;;;;;;;18.76;36.12;95638.31;5056688;28;20533;-69
2021/06/03 07:37:58;;;;;;;4.83;3.10;;;;;;;19.23;35.91;95636.22;5066435;28;20441;-73
2021/06/03 07:40:28;;;;;;;7.33;3.57;;;;;;;19.09;34.71;95640.72;5073454;28;20434;-71
2021/06/03 07:42:56;;;;;;;7.17;3.43;;;;;;;18.84;35.08;95641.13;5061735;28;20558;-71
2021/06/03 07:45:27;;;;;;;8.57;3.70;;;;;;;18.76;35.74;95625.81;5070631;28;20430;-73
2021/06/03 07:47:58;;;;;;;5.73;3.40;;;;;;;18.97;35.06;95637.72;5074087;28;20466;-70
2021/06/03 07:50:28;;;;;;;9.90;3.10;;;;;;;18.61;34.98;95634.00;5073321;28;20514;-72
2021/06/03 07:52:56;;;;;;;5.73;3.30;;;;;;;18.77;34.59;95643.34;5073329;28;20464;-69
2021/06/03 07:55:24;;;;;;;8.77;3.23;;;;;;;18.87;35.26;95643.19;5072865;28;20462;-67
2021/06/03 07:57:56;;;;;;;10.00;3.50;;;;;;;18.72;35.32;95646.06;5064649;28;20431;-70
2021/06/03 08:00:25;;;;;;;7.43;3.83;;;;;;;18.85;35.58;95640.03;5052665;28;20449;-70
2021/06/03 08:02:52;;;;;;;10.93;3.67;;;;;;;18.75;33.71;95640.19;5060524;28;20939;-65
2021/06/03 08:05:39;;;;;;;18.70;3.27;;;;;;;18.79;34.13;95640.41;5066101;28;20871;-70
2021/06/03 08:08:06;;;;;;;7.43;3.10;;;;;;;18.94;33.42;95619.69;5052814;28;20443;-67
2021/06/03 08:10:36;;;;;;;13.67;4.00;;;;;;;18.83;34.24;95636.88;5065402;28;20435;-68
2021/06/03 08:13:03;;;;;;;8.37;3.27;;;;;;;19.41;34.20;95633.84;5052827;28;20605;-71
2021/06/03 08:15:32;;;;;;;6.40;3.37;;;;;;;19.39;33.31;95612.09;5073020;28;20434;-68
2021/06/03 08:17:59;;;;;;;7.23;3.10;;;;;;;19.48;33.29;95620.97;5059444;28;20454;-69
2021/06/03 08:20:41;;;;;;;7.13;3.07;;;;;;;19.08;33.82;95623.22;5052561;28;20497;-71
2021/06/03 08:23:11;;;;;;;5.10;3.30;;;;;;;19.35;33.72;95635.00;5065318;28;20535;-70
2021/06/03 08:25:38;;;;;;;7.13;3.13;;;;;;;19.18;33.39;95633.66;5066522;28;20427;-67
2021/06/03 08:28:05;;;;;;;16.77;4.30;;;;;;;19.17;33.64;95637.41;5064958;28;20438;-68
2021/06/03 08:30:34;;;;;;;5.63;2.80;;;;;;;19.57;33.68;95629.81;5054258;28;20498;-70
2021/06/03 08:33:02;;;;;;;16.47;3.60;;;;;;;19.77;33.36;95634.78;5062967;28;20474;-68
2021/06/03 08:35:30;;;;;;;9.70;3.50;;;;;;;19.39;33.95;95643.97;5055143;28;20475;-66
2021/06/03 08:38:00;;;;;;;7.17;3.20;;;;;;;19.48;33.62;95639.56;5064642;28;20794;-68
2021/06/03 08:40:31;;;;;;;9.80;3.40;;;;;;;19.29;33.13;95638.81;5071148;28;20952;-69
2021/06/03 08:43:00;;;;;;;6.77;3.50;;;;;;;19.79;32.77;95643.25;5072927;28;20875;-71
2021/06/03 08:45:29;;;;;;;9.40;3.20;;;;;;;19.96;32.92;95638.16;5072728;28;20453;-69
2021/06/03 08:47:57;;;;;;;6.63;2.93;;;;;;;20.38;32.46;95645.03;5061659;28;20442;-73
2021/06/03 08:50:29;;;;;;;6.20;2.90;;;;;;;20.18;32.02;95640.94;5068645;28;20438;-69
2021/06/03 08:52:57;;;;;;;13.53;3.43;;;;;;;20.17;32.01;95644.66;5062719;28;20850;-69
2021/06/03 08:58:13;;;;;;;6.37;3.20;;;;;;;20.56;32.31;95642.25;5072027;28;20466;-68
2021/06/03 09:00:43;;;;;;;5.20;2.70;;;;;;;20.31;31.64;95632.13;5057780;28;20978;-69
2021/06/03 09:03:11;;;;;;;5.07;3.20;;;;;;;20.81;32.98;95633.69;5061683;28;20880;-70
2021/06/03 09:05:40;;;;;;;6.27;3.20;;;;;;;20.34;31.49;95636.88;5059110;28;20969;-69
2021/06/03 09:08:17;;;;;;;4.80;3.00;;;;;;;20.04;32.25;95627.59;5051935;28;20972;-69
2021/06/03 09:10:44;;;;;;;5.37;3.00;;;;;;;20.42;31.96;95638.81;5051655;28;20447;-67
2021/06/03 09:13:13;;;;;;;5.77;3.10;;;;;;;20.25;31.58;95643.97;5052950;28;20971;-73
2021/06/03 09:15:46;;;;;;;11.03;3.80;;;;;;;20.35;31.41;95646.41;5064071;28;20950;-69
2021/06/03 09:18:14;;;;;;;4.97;3.17;;;;;;;20.24;31.21;95623.75;5052132;28;20455;-70
2021/06/03 09:20:45;;;;;;;6.37;3.50;;;;;;;20.51;31.88;95645.00;5064575;28;20449;-68
2021/06/03 09:23:32;;;;;;;9.30;3.90;;;;;;;20.99;33.71;95634.59;5051264;28;20439;-70
2021/06/03 09:26:05;;;;;;;7.87;3.83;;;;;;;21.18;31.35;95636.00;5051529;28;20488;-68
2021/06/03 09:28:38;;;;;;;6.83;3.20;;;;;;;21.05;32.17;95628.09;5052817;28;20481;-71
2021/06/03 09:31:09;;;;;;;3.43;2.77;;;;;;;21.53;31.71;95636.22;5070779;28;20482;-70
2021/06/03 09:33:45;;;;;;;6.13;3.43;;;;;;;21.29;30.34;95638.44;5054992;28;20532;-67
2021/06/03 09:36:32;;;;;;;5.50;2.83;;;;;;;21.27;30.83;95629.97;5051754;28;20868;-68
2021/06/03 09:39:19;;;;;;;3.37;2.90;;;;;;;21.35;30.99;95621.22;5051089;28;20473;-72
2021/06/03 09:41:49;;;;;;;5.47;2.70;;;;;;;21.05;30.41;95620.09;5066704;28;20697;-71
2021/06/03 09:44:56;;;;;;;7.87;3.27;;;;;;;21.84;30.16;95629.03;5070867;28;20212;-72
2021/06/03 09:47:38;;;;;;;4.47;2.83;;;;;;;20.98;31.35;95617.03;5039655;28;20447;-68
2021/06/03 09:50:08;;;;;;;6.03;2.77;;;;;;;21.25;29.86;95627.59;5063759;28;20452;-67
2021/06/03 09:52:37;;;;;;;5.50;2.90;;;;;;;21.72;31.99;95620.78;5057812;28;20454;-69
2021/06/03 09:55:05;;;;;;;3.47;2.70;;;;;;;21.41;31.69;95620.00;5056797;28;20701;-69
2021/06/03 09:57:34;;;;;;;6.27;2.63;;;;;;;21.55;30.46;95620.72;5070542;28;20426;-68
2021/06/03 10:00:08;;;;;;;4.00;2.80;;;;;;;20.69;31.23;95625.41;5069881;28;20288;-69
2021/06/03 10:02:39;;;;;;;4.80;3.30;;;;;;;20.54;31.33;95622.31;5056636;28;20452;-70
2021/06/03 10:05:17;;;;;;;6.73;2.97;;;;;;;21.10;30.43;95614.63;5065337;28;20486;-72
2021/06/03 10:07:59;;;;;;;4.10;3.00;;;;;;;20.74;31.41;95622.66;5051094;28;20208;-66
2021/06/03 10:10:32;;;;;;;4.67;2.60;;;;;;;21.22;31.82;95624.75;5057157;28;20212;-71
2021/06/03 10:13:05;;;;;;;8.47;3.40;;;;;;;21.52;33.09;95623.97;5070458;28;20223;-69
2021/06/03 10:15:35;;;;;;;7.23;3.10;;;;;;;21.62;31.40;95623.72;5057277;28;20267;-67
2021/06/03 10:18:07;;;;;;;8.00;3.17;;;;;;;22.28;31.38;95620.81;5056922;28;20443;-71
2021/06/03 10:20:54;;;;;;;7.37;2.83;;;;;;;22.41;29.55;95614.56;5056735;28;20195;-70
2021/06/03 10:23:24;;;;;;;4.23;3.00;;;;;;;22.47;29.47;95615.22;5054739;28;20196;-67
2021/06/03 10:25:56;;;;;;;4.37;2.60;;;;;;;22.03;30.48;95616.22;5050911;28;20250;-68
2021/06/03 10:28:24;;;;;;;3.17;2.53;;;;;;;22.13;30.57;95615.94;5050188;28;20250;-68
2021/06/03 10:30:53;;;;;;;6.57;3.03;;;;;;;22.33;29.98;95620.69;5050416;28;20228;-71
2021/06/03 10:33:26;;;;;;;5.50;3.03;;;;;;;22.60;30.59;95625.81;5063250;28;20685;-73
2021/06/03 10:35:57;;;;;;;6.17;2.87;;;;;;;22.67;29.98;95626.13;5050673;28;20279;-68
2021/06/03 10:38:26;;;;;;;3.73;3.00;;;;;;;22.90;28.99;95611.50;5064924;28;20204;-72
2021/06/03 10:41:02;;;;;;;5.17;2.90;;;;;;;22.84;28.85;95620.00;5062503;28;20200;-69
2021/06/03 10:43:35;;;;;;;8.07;2.80;;;;;;;22.32;29.49;95623.66;5063705;28;20200;-70
2021/06/03 10:46:03;;;;;;;9.53;3.53;;;;;;;22.72;29.18;95622.47;5050547;28;20227;-70
2021/06/03 10:48:30;;;;;;;5.57;3.03;;;;;;;22.90;29.16;95608.81;5065374;28;20269;-69
2021/06/03 10:51:03;;;;;;;5.77;2.80;;;;;;;22.58;28.39;95605.81;5070329;28;20219;-69
2021/06/03 10:53:31;;;;;;;5.97;3.10;;;;;;;22.03;29.55;95605.53;5069789;28;20253;-65
2021/06/03 10:56:09;;;;;;;4.87;2.93;;;;;;;22.75;28.82;95601.28;5063503;28;20192;-65
2021/06/03 10:58:39;;;;;;;9.43;3.13;;;;;;;21.70;29.50;95617.63;5049273;28;20211;-71
2021/06/03 11:01:08;;;;;;;7.47;3.20;;;;;;;22.28;29.69;95604.81;5057131;28;20204;-70
2021/06/03 11:03:48;;;;;;;6.10;2.70;;;;;;;22.23;30.59;95612.97;5054193;28;20674;-70
2021/06/03 11:06:22;;;;;;;5.43;2.90;;;;;;;22.16;29.97;95609.97;5049806;28;20188;-69
2021/06/03 11:09:04;;;;;;;9.37;3.37;;;;;;;22.56;31.10;95611.50;5049716;28;20223;-70
2021/06/03 11:11:40;;;;;;;10.97;3.00;;;;;;;23.14;29.75;95606.44;5063658;28;20212;-65
2021/06/03 11:14:11;;;;;;;5.07;3.20;;;;;;;23.80;29.20;95596.22;5058494;28;20198;-68
2021/06/03 11:16:41;;;;;;;6.53;2.73;;;;;;;24.02;30.06;95601.34;5069931;28;20195;-66
2021/06/03 11:19:10;;;;;;;6.57;3.10;;;;;;;24.20;29.77;95589.41;5061216;28;20192;-69
2021/06/03 11:21:37;;;;;;;6.07;3.03;;;;;;;24.62;27.27;95588.34;5049782;28;20283;-71
2021/06/03 11:24:37;;;;;;;4.80;2.90;;;;;;;24.01;27.89;95595.19;5056286;28;20208;-65
2021/06/03 11:27:08;;;;;;;5.50;2.90;;;;;;;23.59;28.05;95604.19;5051783;28;20196;-70
2021/06/03 11:29:37;;;;;;;3.37;3.07;;;;;;;23.39;28.09;95598.72;5059556;28;20220;-70
2021/06/03 11:32:04;;;;;;;3.67;3.00;;;;;;;23.53;29.43;95593.94;5052437;28;20207;-67
2021/06/03 11:34:54;;;;;;;4.63;3.27;;;;;;;23.23;28.96;95600.31;5058317;28;20200;-73
2021/06/03 11:37:43;;;;;;;4.93;3.30;;;;;;;22.48;29.19;95590.84;5058771;28;20204;-69
2021/06/03 11:40:12;;;;;;;5.80;3.00;;;;;;;23.12;30.06;95589.94;5055214;28;20197;-73
2021/06/03 11:42:41;;;;;;;4.67;3.20;;;;;;;23.41;29.75;95591.94;5060849;28;20571;-68
2021/06/03 11:45:16;;;;;;;5.60;3.13;;;;;;;22.88;28.92;95580.84;5063107;28;20255;-66
2021/06/03 11:47:43;;;;;;;5.90;3.20;;;;;;;22.89;29.29;95588.56;5049462;28;20192;-72